Time;durP1;ratioP1;P1;durP2;ratioP2;P2;SDS_P1;SDS_P2;PMS_P1;PMS_P2;Temp;Humidity;BMP_temperature;BMP_pressure;BME280_temperature;BME280_humidity;BME280_pressure;Samples;Min_cycle;Max_cycle;Signal;HPM_P1;HPM_P2
2023/06/15 00:00:29;;;;;;;26.15;7.60;;;;;;;15.73;42.23;100049.94;5073417;28;20362;-61
2023/06/15 00:02:55;;;;;;;23.33;7.72;;;;;;;15.51;42.23;100014.28;5073350;28;20063;-61
2023/06/15 00:05:21;;;;;;;17.88;7.80;;;;;;;15.62;41.98;100038.34;5072725;28;20366;-61
2023/06/15 00:07:47;;;;;;;19.50;8.00;;;;;;;15.59;42.23;100041.34;5073167;28;20031;-61
2023/06/15 00:10:14;;;;;;;20.35;7.85;;;;;;;15.54;42.44;100040.09;5073398;28;20032;-62
2023/06/15 00:12:39;;;;;;;20.25;8.25;;;;;;;15.53;42.36;100035.69;5071358;28;20025;-61
2023/06/15 00:15:06;;;;;;;21.80;8.52;;;;;;;15.48;42.84;100039.69;5071257;28;20082;-71
2023/06/15 00:17:37;;;;;;;17.13;8.05;;;;;;;15.49;42.83;100043.25;5072856;28;20120;-61
2023/06/15 00:20:17;;;;;;;15.23;8.15;;;;;;;15.30;42.78;100001.88;5073383;28;20094;-62
2023/06/15 00:22:45;;;;;;;16.90;7.40;;;;;;;15.40;42.97;100017.16;5072267;28;20032;-62
2023/06/15 00:25:11;;;;;;;15.75;7.75;;;;;;;15.42;42.95;100034.03;5072787;28;20039;-61
2023/06/15 00:27:37;;;;;;;19.77;7.95;;;;;;;15.44;42.50;100034.78;5072558;28;20028;-62
2023/06/15 00:30:04;;;;;;;19.33;7.35;;;;;;;15.42;42.90;100028.66;5073112;28;20044;-62
2023/06/15 00:32:33;;;;;;;19.33;7.75;;;;;;;15.42;42.91;100023.25;5073101;28;20032;-60
2023/06/15 00:34:59;;;;;;;15.63;6.95;;;;;;;15.41;42.79;100021.56;5076681;28;21632;-61
2023/06/15 00:37:24;;;;;;;17.23;7.75;;;;;;;15.42;43.46;100028.66;5093365;28;20039;-61
2023/06/15 00:39:50;;;;;;;18.45;7.40;;;;;;;15.48;42.20;100028.06;5092986;28;20028;-61
2023/06/15 00:42:16;;;;;;;16.70;8.02;;;;;;;15.50;43.14;100031.47;5087915;28;20020;-61
2023/06/15 00:44:41;;;;;;;14.15;6.50;;;;;;;15.57;42.21;100032.53;5072685;28;20059;-62
2023/06/15 00:47:07;;;;;;;17.52;7.35;;;;;;;15.62;42.28;100032.09;5072711;28;20110;-71
2023/06/15 00:49:33;;;;;;;12.18;6.75;;;;;;;15.63;42.35;100031.94;5073165;28;20363;-61
2023/06/15 00:52:00;;;;;;;16.48;7.10;;;;;;;15.60;42.61;100034.94;5072366;28;20024;-61
2023/06/15 00:54:26;;;;;;;20.83;6.95;;;;;;;15.57;42.76;100037.94;5072894;28;20024;-61
2023/06/15 00:56:52;;;;;;;12.10;6.95;;;;;;;15.55;43.14;100039.94;5075727;28;20073;-61
2023/06/15 00:59:18;;;;;;;19.45;6.57;;;;;;;15.54;43.24;100035.56;5092791;28;20111;-61
2023/06/15 01:01:44;;;;;;;14.45;7.13;;;;;;;15.52;42.64;100036.69;5092492;28;20039;-61
2023/06/15 01:04:11;;;;;;;16.15;6.95;;;;;;;15.50;42.64;100028.75;5092914;28;20361;-60
2023/06/15 01:06:41;;;;;;;14.73;7.00;;;;;;;15.57;42.90;100034.41;5091462;28;20461;-62
2023/06/15 01:09:10;;;;;;;15.35;7.10;;;;;;;15.35;42.97;100004.97;5093022;28;20038;-71
2023/06/15 01:11:36;;;;;;;17.23;6.97;;;;;;;15.54;42.70;100029.28;5091664;28;20024;-61
2023/06/15 01:14:07;;;;;;;16.15;7.18;;;;;;;15.55;42.84;100034.53;5072528;28;20032;-61
2023/06/15 01:16:37;;;;;;;12.98;6.18;;;;;;;15.62;42.47;100046.44;5072891;28;20056;-60
2023/06/15 01:19:09;;;;;;;18.10;6.93;;;;;;;15.54;43.27;100035.56;5075636;28;20036;-61
2023/06/15 01:21:37;;;;;;;14.25;6.97;;;;;;;15.58;42.71;100036.09;5092805;28;20098;-61
2023/06/15 01:24:31;;;;;;;13.60;6.70;;;;;;;15.70;43.20;100045.66;5092583;28;20024;-61
2023/06/15 01:26:58;;;;;;;15.98;6.82;;;;;;;15.60;43.25;100040.34;5089835;28;20035;-61
2023/06/15 01:29:26;;;;;;;12.23;6.70;;;;;;;15.62;42.99;100041.03;5072126;28;20078;-61
2023/06/15 01:31:52;;;;;;;22.52;6.97;;;;;;;15.65;43.17;100043.41;5072233;28;20028;-62
2023/06/15 01:34:17;;;;;;;14.82;7.10;;;;;;;15.68;42.90;100046.84;5071315;28;20025;-62
2023/06/15 01:36:43;;;;;;;14.95;7.18;;;;;;;15.71;42.99;100046.53;5054313;28;20119;-61
2023/06/15 01:39:09;;;;;;;16.85;7.38;;;;;;;15.74;43.05;100046.22;5072327;28;20102;-61
2023/06/15 01:41:36;;;;;;;16.45;6.88;;;;;;;15.77;43.20;100048.63;5071957;28;20029;-62
2023/06/15 01:44:02;;;;;;;17.65;7.32;;;;;;;15.80;43.54;100045.63;5072156;28;20028;-61
2023/06/15 01:46:29;;;;;;;14.90;7.13;;;;;;;15.85;43.86;100046.00;5071894;28;20032;-62
2023/06/15 01:48:55;;;;;;;13.52;7.38;;;;;;;15.86;43.78;100039.59;5071854;28;20082;-61
2023/06/15 01:51:23;;;;;;;21.35;7.85;;;;;;;15.87;43.53;100040.47;5072154;28;20032;-62
2023/06/15 01:53:49;;;;;;;21.38;7.97;;;;;;;15.92;43.32;100032.78;5084322;28;20028;-61
2023/06/15 01:56:15;;;;;;;22.85;7.70;;;;;;;15.91;43.52;100037.34;5090816;28;20036;-61
2023/06/15 01:58:40;;;;;;;20.88;8.30;;;;;;;15.79;43.95;100004.28;5087696;28;20028;-67
2023/06/15 02:01:06;;;;;;;18.58;7.60;;;;;;;16.04;43.97;100041.50;5076088;28;20033;-63
2023/06/15 02:03:32;;;;;;;13.27;7.32;;;;;;;15.85;43.96;100008.19;5075668;28;20405;-61
2023/06/15 02:05:57;;;;;;;16.60;7.15;;;;;;;16.09;43.81;100043.75;5076035;28;20051;-61
2023/06/15 02:08:23;;;;;;;13.55;6.82;;;;;;;16.05;43.64;100027.84;5075966;28;20060;-61
2023/06/15 02:10:48;;;;;;;15.38;7.35;;;;;;;16.12;43.71;100029.91;5095904;28;20064;-61
2023/06/15 02:13:14;;;;;;;14.00;7.07;;;;;;;16.27;43.67;100039.16;5095990;28;20518;-62
2023/06/15 02:15:40;;;;;;;14.50;7.15;;;;;;;16.39;43.10;100044.31;5096474;28;20024;-61
2023/06/15 02:18:12;;;;;;;11.30;7.10;;;;;;;16.59;42.63;100044.97;5095478;28;20047;-62
2023/06/15 02:20:44;;;;;;;11.57;6.88;;;;;;;16.93;42.00;100052.31;5094387;28;20032;-61
2023/06/15 02:23:11;;;;;;;15.45;6.75;;;;;;;17.15;42.17;100052.81;5096149;28;20454;-61
2023/06/15 02:25:37;;;;;;;14.32;7.35;;;;;;;17.39;41.29;100051.22;5095504;28;20085;-61
2023/06/15 02:28:03;;;;;;;13.57;6.95;;;;;;;17.62;41.03;100035.22;5095438;28;20031;-61
2023/06/15 02:30:29;;;;;;;13.07;6.78;;;;;;;17.98;40.88;100045.81;5081211;28;20156;-62
2023/06/15 02:32:59;;;;;;;9.55;6.20;;;;;;;18.16;39.92;100021.28;5075522;28;20039;-61
2023/06/15 02:35:25;;;;;;;12.68;6.80;;;;;;;18.67;38.70;100041.94;5074026;28;20115;-60
2023/06/15 02:37:51;;;;;;;12.80;6.38;;;;;;;19.04;39.01;100032.38;5074124;28;20174;-62
2023/06/15 02:40:17;;;;;;;14.80;6.57;;;;;;;19.45;37.88;100035.97;5085996;28;20036;-62
2023/06/15 02:42:42;;;;;;;9.60;5.63;;;;;;;19.78;36.65;100042.06;5095203;28;20024;-61
2023/06/15 02:45:09;;;;;;;14.90;6.35;;;;;;;20.04;36.07;100053.66;5095447;28;20028;-61
2023/06/15 02:47:35;;;;;;;10.93;6.78;;;;;;;20.14;36.36;100043.38;5095007;28;20127;-61
2023/06/15 02:50:01;;;;;;;14.75;6.70;;;;;;;20.25;36.02;100044.84;5093665;28;20028;-60
2023/06/15 02:52:31;;;;;;;12.85;6.15;;;;;;;20.28;36.53;100033.59;5095532;28;20060;-62
2023/06/15 02:54:58;;;;;;;15.57;6.60;;;;;;;20.40;35.58;100044.06;5094931;28;20434;-61
2023/06/15 02:57:24;;;;;;;16.08;6.40;;;;;;;20.53;34.73;100033.38;5094928;28;20505;-61
2023/06/15 02:59:50;;;;;;;14.95;6.35;;;;;;;20.92;34.25;100045.09;5092566;28;20176;-61
2023/06/15 03:02:15;;;;;;;10.73;6.00;;;;;;;21.40;33.37;100042.00;5092472;28;20024;-64
2023/06/15 03:04:44;;;;;;;9.77;6.22;;;;;;;21.86;33.13;100040.88;5095315;28;20024;-62
2023/06/15 03:07:16;;;;;;;12.60;5.70;;;;;;;22.40;31.89;100044.13;5095001;28;20454;-61
2023/06/15 03:09:50;;;;;;;10.88;5.57;;;;;;;22.77;31.38;100044.88;5081322;28;20119;-61
2023/06/15 03:12:17;;;;;;;13.43;5.68;;;;;;;22.94;30.38;100050.88;5074646;28;20032;-63
2023/06/15 03:14:44;;;;;;;12.95;5.15;;;;;;;23.28;29.79;100056.56;5073615;28;20067;-62
2023/06/15 03:17:12;;;;;;;9.95;4.97;;;;;;;23.57;28.52;100054.59;5074359;28;20088;-62
2023/06/15 03:19:41;;;;;;;11.63;5.00;;;;;;;23.88;28.08;100055.97;5074291;28;20036;-61
2023/06/15 03:22:09;;;;;;;7.57;4.63;;;;;;;24.09;27.88;100051.41;5074573;28;20462;-63
2023/06/15 03:24:35;;;;;;;9.18;4.35;;;;;;;24.37;27.03;100053.97;5076281;28;20036;-62
2023/06/15 03:27:03;;;;;;;9.77;4.80;;;;;;;24.41;27.35;100035.25;5083293;28;20037;-63
2023/06/15 03:29:31;;;;;;;7.22;4.22;;;;;;;24.77;26.43;100035.88;5072692;28;20173;-62
2023/06/15 03:31:58;;;;;;;11.38;4.70;;;;;;;25.02;25.90;100049.72;5073978;28;20046;-63
2023/06/15 03:34:27;;;;;;;8.43;4.40;;;;;;;25.34;25.24;100065.47;5072653;28;20082;-62
2023/06/15 03:36:53;;;;;;;7.43;4.40;;;;;;;25.55;25.28;100031.44;5073731;28;20044;-61
2023/06/15 03:39:19;;;;;;;8.48;4.47;;;;;;;26.04;24.76;100055.66;5073515;28;20082;-63
2023/06/15 03:41:45;;;;;;;8.98;4.28;;;;;;;26.27;24.34;100035.91;5073115;28;20033;-61
2023/06/15 03:44:10;;;;;;;7.38;4.35;;;;;;;26.72;23.54;100031.31;5056186;28;20020;-60
2023/06/15 03:46:36;;;;;;;6.65;4.30;;;;;;;27.31;22.97;100052.91;5073583;28;20033;-61
2023/06/15 03:49:02;;;;;;;9.95;4.20;;;;;;;27.76;22.77;100047.09;5076652;28;20413;-62
2023/06/15 03:51:27;;;;;;;7.38;3.83;;;;;;;28.20;22.11;100044.13;5093965;28;20024;-62
2023/06/15 03:53:53;;;;;;;12.65;4.30;;;;;;;28.59;21.92;100046.50;5094151;28;20070;-62
2023/06/15 03:56:18;;;;;;;8.90;4.47;;;;;;;28.99;21.50;100044.97;5080165;28;20024;-62
2023/06/15 03:58:44;;;;;;;8.02;4.70;;;;;;;29.42;20.64;100051.16;5072606;28;20028;-61
2023/06/15 04:01:12;;;;;;;10.93;4.53;;;;;;;29.92;20.56;100054.31;5073475;28;20074;-62
2023/06/15 04:03:38;;;;;;;6.68;3.80;;;;;;;30.42;19.66;100057.44;5072968;28;20063;-62
2023/06/15 04:06:05;;;;;;;9.98;4.30;;;;;;;30.95;19.17;100046.94;5072828;28;20059;-62
2023/06/15 04:08:37;;;;;;;11.23;4.53;;;;;;;31.55;18.05;100058.25;5074877;28;20032;-63
2023/06/15 04:11:03;;;;;;;6.70;3.95;;;;;;;31.68;17.89;100037.66;5073346;28;20056;-62
2023/06/15 04:13:29;;;;;;;9.88;4.93;;;;;;;32.15;17.58;100041.75;5072746;28;20150;-62
2023/06/15 04:15:54;;;;;;;8.02;4.18;;;;;;;32.54;17.34;100039.88;5072635;28;20020;-65
2023/06/15 04:18:21;;;;;;;11.48;4.80;;;;;;;33.14;16.75;100051.66;5075089;28;20044;-63
2023/06/15 04:20:46;;;;;;;7.25;4.60;;;;;;;33.62;16.12;100051.63;5073368;28;20039;-62
2023/06/15 04:23:12;;;;;;;6.88;4.30;;;;;;;34.18;15.47;100054.81;5071979;28;20040;-61
2023/06/15 04:25:40;;;;;;;7.82;4.53;;;;;;;34.70;14.78;100057.59;5072112;28;21000;-62
2023/06/15 04:28:10;;;;;;;6.97;4.53;;;;;;;35.19;14.41;100047.75;5074332;28;20039;-62
2023/06/15 04:30:40;;;;;;;4.80;3.78;;;;;;;35.78;14.36;100057.25;5092979;28;20067;-62
2023/06/15 04:33:10;;;;;;;7.22;3.90;;;;;;;36.44;13.47;100059.88;5091000;28;20434;-62
2023/06/15 04:35:36;;;;;;;5.78;4.10;;;;;;;36.57;13.03;100055.63;5093333;28;20064;-61
2023/06/15 04:38:04;;;;;;;14.45;3.83;;;;;;;36.41;12.97;100060.44;5092774;28;20461;-62
2023/06/15 04:40:31;;;;;;;7.47;3.92;;;;;;;36.81;12.97;100056.78;5073228;28;20087;-59
2023/06/15 04:43:02;;;;;;;9.13;4.07;;;;;;;37.53;12.16;100067.16;5080646;28;20108;-60
2023/06/15 04:45:29;;;;;;;4.18;3.58;;;;;;;37.22;11.48;100049.91;5073103;28;20382;-62
2023/06/15 04:47:55;;;;;;;5.47;3.33;;;;;;;37.39;11.87;100055.03;5073080;28;20435;-58
2023/06/15 04:50:21;;;;;;;6.25;3.42;;;;;;;37.74;11.36;100062.13;5072588;28;20028;-58
2023/06/15 04:52:48;;;;;;;7.75;3.60;;;;;;;37.69;11.21;100064.16;5073722;28;20028;-57
2023/06/15 04:55:14;;;;;;;6.50;3.70;;;;;;;38.28;11.42;100063.84;5071987;28;20029;-56
2023/06/15 04:57:40;;;;;;;8.50;3.88;;;;;;;39.08;10.68;100060.22;5072691;28;20833;-56
2023/06/15 05:00:07;;;;;;;5.18;3.58;;;;;;;39.68;10.29;100059.25;5071654;28;20030;-56
2023/06/15 05:02:33;;;;;;;6.85;3.88;;;;;;;39.96;10.27;100055.56;5085751;28;20110;-53
2023/06/15 05:04:58;;;;;;;5.70;3.80;;;;;;;40.37;9.83;100053.72;5092910;28;20423;-56
2023/06/15 05:07:24;;;;;;;10.02;3.90;;;;;;;40.85;9.59;100066.25;5093127;28;20036;-54
2023/06/15 05:09:50;;;;;;;3.92;3.55;;;;;;;41.14;9.57;100056.44;5092853;28;20063;-53
2023/06/15 05:12:15;;;;;;;3.97;3.20;;;;;;;41.32;9.26;100068.59;5090722;28;20058;-53
2023/06/15 05:14:41;;;;;;;6.07;3.58;;;;;;;41.60;8.92;100066.38;5092871;28;20059;-56
2023/06/15 05:17:07;;;;;;;5.20;3.40;;;;;;;42.14;8.98;100070.06;5092487;28;20055;-56
2023/06/15 05:19:32;;;;;;;4.75;3.50;;;;;;;42.40;8.50;100060.75;5090976;28;20032;-58
2023/06/15 05:22:00;;;;;;;7.28;3.00;;;;;;;42.71;8.29;100063.34;5090561;28;20065;-55
2023/06/15 05:24:26;;;;;;;4.20;3.40;;;;;;;42.09;8.76;100068.22;5092314;28;20024;-57
2023/06/15 05:26:51;;;;;;;5.55;3.70;;;;;;;41.99;8.99;100063.75;5092420;28;20039;-67
2023/06/15 05:29:17;;;;;;;6.90;3.22;;;;;;;42.29;8.61;100037.78;5090847;28;20362;-57
2023/06/15 05:31:43;;;;;;;3.95;3.58;;;;;;;42.09;8.88;100068.22;5091939;28;20028;-57
2023/06/15 05:34:10;;;;;;;3.75;3.15;;;;;;;42.02;9.10;100053.84;5093813;28;20054;-57
2023/06/15 05:36:35;;;;;;;3.80;3.50;;;;;;;41.48;8.98;100049.31;5096355;28;20035;-57
2023/06/15 05:39:03;;;;;;;4.00;3.60;;;;;;;42.15;8.47;100060.47;5094381;28;20024;-64
2023/06/15 05:41:28;;;;;;;5.32;3.25;;;;;;;42.25;8.69;100042.41;5096834;28;20116;-52
2023/06/15 05:43:54;;;;;;;7.47;3.20;;;;;;;42.92;8.45;100054.16;5096170;28;20065;-60
2023/06/15 05:46:19;;;;;;;6.38;3.13;;;;;;;43.82;7.79;100065.44;5096402;28;20024;-57
2023/06/15 05:48:45;;;;;;;9.23;3.80;;;;;;;44.94;7.23;100043.25;5091218;28;20035;-58
2023/06/15 05:51:10;;;;;;;8.60;3.45;;;;;;;45.68;7.04;100058.50;5075485;28;20032;-55
2023/06/15 05:53:36;;;;;;;4.53;3.03;;;;;;;44.34;7.20;100060.50;5075349;28;20111;-57
2023/06/15 05:56:03;;;;;;;7.13;2.97;;;;;;;44.44;6.98;100031.84;5076700;28;20037;-54
2023/06/15 05:58:29;;;;;;;3.17;2.75;;;;;;;44.31;7.30;100075.31;5074573;28;20036;-53
2023/06/15 06:00:54;;;;;;;4.45;2.70;;;;;;;43.96;7.52;100033.31;5074268;28;20024;-57
2023/06/15 06:03:20;;;;;;;4.68;3.20;;;;;;;44.20;7.29;100057.19;5076018;28;20029;-55
2023/06/15 06:05:46;;;;;;;3.38;3.08;;;;;;;43.94;7.33;100052.59;5076015;28;20024;-58
2023/06/15 06:08:11;;;;;;;4.70;3.08;;;;;;;43.72;6.94;100060.22;5075282;28;20032;-59
2023/06/15 06:10:37;;;;;;;3.92;3.20;;;;;;;42.55;7.72;100056.59;5076176;28;20047;-54
2023/06/15 06:13:02;;;;;;;3.70;3.00;;;;;;;43.14;7.97;100040.97;5075763;28;20328;-57
2023/06/15 06:15:28;;;;;;;3.33;3.03;;;;;;;43.57;7.54;100067.28;5075362;28;20028;-55
2023/06/15 06:17:54;;;;;;;5.97;3.17;;;;;;;43.29;7.44;100062.97;5074843;28;20106;-57
2023/06/15 06:20:20;;;;;;;3.28;2.97;;;;;;;44.65;6.90;100058.38;5075489;28;20048;-57
2023/06/15 06:22:45;;;;;;;3.65;3.17;;;;;;;46.19;6.32;100062.84;5075459;28;20088;-59
2023/06/15 06:25:11;;;;;;;6.05;2.70;;;;;;;47.08;6.05;100057.09;5074834;28;20035;-57
2023/06/15 06:27:37;;;;;;;3.65;2.65;;;;;;;47.44;5.50;100057.94;5074876;28;20051;-55
2023/06/15 06:30:03;;;;;;;7.47;2.83;;;;;;;47.85;5.44;100055.63;5089287;28;20107;-52
2023/06/15 06:32:30;;;;;;;9.15;3.30;;;;;;;48.20;5.44;100067.28;5095472;28;20047;-55
2023/06/15 06:34:56;;;;;;;9.57;3.33;;;;;;;47.21;5.33;100052.16;5082954;28;20040;-71
2023/06/15 06:37:22;;;;;;;4.30;2.67;;;;;;;47.19;5.74;100052.50;5075194;28;20465;-56
2023/06/15 06:39:47;;;;;;;7.65;3.00;;;;;;;47.35;5.54;100060.19;5089593;28;20028;-56
2023/06/15 06:42:13;;;;;;;5.38;2.97;;;;;;;47.73;5.58;100038.75;5095530;28;20120;-54
2023/06/15 06:44:39;;;;;;;2.92;2.72;;;;;;;48.80;4.90;100060.31;5080877;28;20091;-54
2023/06/15 06:47:05;;;;;;;4.32;3.15;;;;;;;48.61;4.41;100056.31;5073756;28;20097;-55
2023/06/15 06:49:31;;;;;;;3.72;3.05;;;;;;;48.59;4.90;100053.03;5074699;28;20436;-51
2023/06/15 06:51:56;;;;;;;8.25;3.13;;;;;;;48.70;4.92;100051.16;5075234;28;20081;-69
2023/06/15 06:54:22;;;;;;;8.60;3.60;;;;;;;48.93;4.55;100058.88;5075237;28;20029;-56
2023/06/15 06:56:47;;;;;;;6.22;3.45;;;;;;;49.35;4.39;100048.59;5074410;28;20047;-55
2023/06/15 06:59:13;;;;;;;4.60;3.30;;;;;;;49.47;4.61;100047.53;5075437;28;20021;-52
2023/06/15 07:01:39;;;;;;;12.60;3.60;;;;;;;50.04;4.58;100052.34;5075033;28;20028;-58
2023/06/15 07:04:05;;;;;;;6.35;3.45;;;;;;;49.90;4.28;100050.16;5074718;28;20028;-51
2023/06/15 07:06:30;;;;;;;3.70;3.40;;;;;;;49.72;3.90;100046.25;5074716;28;20068;-52
2023/06/15 07:08:56;;;;;;;4.57;3.45;;;;;;;50.50;4.08;100056.09;5075656;28;20044;-59
2023/06/15 07:11:21;;;;;;;4.75;3.38;;;;;;;50.38;4.21;100048.66;5076195;28;20032;-55
2023/06/15 07:13:47;;;;;;;4.50;3.50;;;;;;;50.20;4.04;100039.91;5074078;28;20025;-59
2023/06/15 07:16:12;;;;;;;4.95;3.45;;;;;;;49.96;3.90;100040.06;5073826;28;20024;-51
2023/06/15 07:18:38;;;;;;;13.55;3.78;;;;;;;50.19;4.35;100032.59;5073883;28;20463;-56
2023/06/15 07:21:03;;;;;;;19.10;3.92;;;;;;;50.74;3.64;100053.88;5093688;28;20036;-61
2023/06/15 07:23:29;;;;;;;4.68;3.50;;;;;;;48.85;4.16;100035.25;5094104;28;20085;-55
2023/06/15 07:25:55;;;;;;;10.40;3.60;;;;;;;48.24;4.86;100032.09;5085432;28;20057;-52
2023/06/15 07:28:20;;;;;;;8.93;3.58;;;;;;;48.80;4.82;100020.53;5070105;28;20047;-60
2023/06/15 07:30:50;;;;;;;6.85;3.75;;;;;;;48.84;4.37;100035.59;5075365;28;20106;-62
2023/06/15 07:33:17;;;;;;;4.38;3.45;;;;;;;48.05;4.77;100037.78;5074441;28;20025;-61
2023/06/15 07:35:43;;;;;;;4.60;3.33;;;;;;;48.47;5.11;100019.13;5073402;28;20028;-58
2023/06/15 07:38:08;;;;;;;5.10;3.60;;;;;;;49.76;4.16;100013.78;5076893;28;20090;-53
2023/06/15 07:40:34;;;;;;;10.15;3.83;;;;;;;49.67;4.19;100025.47;5072898;28;20355;-60
2023/06/15 07:42:59;;;;;;;13.68;3.80;;;;;;;49.70;4.12;100016.16;5072991;28;20107;-58
2023/06/15 07:45:26;;;;;;;7.70;4.03;;;;;;;49.45;4.08;100010.13;5068751;28;20783;-60
2023/06/15 07:47:51;;;;;;;6.03;3.70;;;;;;;48.77;4.69;100027.78;5073330;28;20044;-58
2023/06/15 07:50:17;;;;;;;10.95;3.90;;;;;;;49.61;4.12;100027.03;5074830;28;20040;-60
2023/06/15 07:52:43;;;;;;;9.93;3.97;;;;;;;50.62;3.93;100007.38;5073406;28;20320;-63
2023/06/15 07:55:09;;;;;;;13.35;4.68;;;;;;;51.18;3.66;99998.84;5073168;28;20161;-59
2023/06/15 07:57:35;;;;;;;9.38;4.55;;;;;;;51.68;3.32;100006.84;5070855;28;20047;-63
2023/06/15 08:00:04;;;;;;;4.88;4.38;;;;;;;49.95;3.89;100004.28;5081872;28;20032;-62
2023/06/15 08:02:35;;;;;;;10.32;4.38;;;;;;;49.66;4.39;100006.75;5091480;28;20024;-59
2023/06/15 08:05:01;;;;;;;8.82;4.60;;;;;;;49.85;4.22;100005.75;5079199;28;20036;-62
2023/06/15 08:07:32;;;;;;;5.72;3.85;;;;;;;49.97;4.21;100003.91;5072868;28;20036;-65
2023/06/15 08:09:59;;;;;;;7.05;4.00;;;;;;;49.31;4.10;100004.25;5080279;28;20344;-56
2023/06/15 08:12:26;;;;;;;5.28;4.05;;;;;;;48.27;4.68;99999.28;5088688;28;20107;-60
2023/06/15 08:14:52;;;;;;;6.97;3.83;;;;;;;48.19;4.95;99987.00;5090509;28;20036;-60
2023/06/15 08:17:17;;;;;;;3.80;3.42;;;;;;;47.95;4.53;99990.94;5092937;28;20048;-60
2023/06/15 08:19:43;;;;;;;5.70;3.65;;;;;;;47.11;5.39;99991.19;5088250;28;20052;-63
2023/06/15 08:22:08;;;;;;;5.53;3.33;;;;;;;46.00;5.65;99966.13;5072351;28;20044;-59
2023/06/15 08:24:34;;;;;;;7.35;3.58;;;;;;;44.01;7.19;99985.16;5073610;28;20335;-58
2023/06/15 08:27:00;;;;;;;4.18;3.50;;;;;;;41.50;8.42;99984.34;5073197;28;20115;-61
2023/06/15 08:29:26;;;;;;;4.60;3.40;;;;;;;39.05;9.81;99995.31;5085368;28;20112;-62
2023/06/15 08:31:51;;;;;;;6.28;3.92;;;;;;;36.61;10.97;99997.28;5092989;28;20036;-59
2023/06/15 08:34:17;;;;;;;4.80;4.40;;;;;;;34.37;13.49;99999.50;5093025;28;20400;-59
2023/06/15 08:36:42;;;;;;;5.85;4.60;;;;;;;33.24;13.90;99978.75;5093017;28;20028;-57
2023/06/15 08:39:08;;;;;;;8.38;4.50;;;;;;;31.82;14.97;99979.97;5075791;28;20058;-64
2023/06/15 08:41:36;;;;;;;8.93;4.97;;;;;;;31.19;16.08;99980.34;5088463;28;20107;-59
2023/06/15 08:44:03;;;;;;;7.60;4.43;;;;;;;30.75;16.00;99973.72;5082763;28;20355;-57
2023/06/15 08:46:30;;;;;;;7.60;5.20;;;;;;;30.50;17.04;99966.69;5074115;28;20020;-60
2023/06/15 08:48:56;;;;;;;9.23;4.25;;;;;;;30.31;16.74;99954.22;5080144;28;20423;-60
2023/06/15 08:51:23;;;;;;;6.03;4.07;;;;;;;30.10;16.55;99975.16;5091942;28;20115;-62
2023/06/15 08:53:50;;;;;;;5.93;4.10;;;;;;;29.62;17.13;99972.66;5062301;28;20478;-61
2023/06/15 08:56:15;;;;;;;11.85;4.32;;;;;;;29.01;17.81;99973.03;5071389;28;20355;-55
2023/06/15 08:58:49;;;;;;;12.68;4.00;;;;;;;28.81;17.95;99981.72;5072040;28;20039;-58
2023/06/15 09:01:19;;;;;;;9.98;3.97;;;;;;;28.84;18.31;99970.22;5071879;28;20032;-58
2023/06/15 09:03:45;;;;;;;6.20;3.88;;;;;;;28.77;18.22;99976.66;5087252;28;20103;-61
2023/06/15 09:06:11;;;;;;;4.85;4.28;;;;;;;28.78;18.37;99961.81;5092075;28;20132;-59
2023/06/15 09:08:36;;;;;;;9.82;5.30;;;;;;;28.38;18.38;99946.00;5089904;28;20031;-60
2023/06/15 09:11:06;;;;;;;7.93;6.53;;;;;;;28.44;18.53;99958.00;5091884;28;20039;-61
2023/06/15 09:13:35;;;;;;;8.30;5.75;;;;;;;28.32;18.56;99958.81;5076770;28;20025;-64
2023/06/15 09:16:01;;;;;;;10.82;7.15;;;;;;;28.40;19.29;99959.56;5072365;28;20051;-55
2023/06/15 09:18:27;;;;;;;6.18;4.40;;;;;;;28.49;17.84;99936.94;5074364;28;20044;-59
2023/06/15 09:21:01;;;;;;;6.32;4.60;;;;;;;28.19;18.29;99956.31;5091960;28;20044;-56
2023/06/15 09:23:32;;;;;;;7.70;4.78;;;;;;;28.00;19.26;99950.03;5081039;28;20455;-57
2023/06/15 09:25:59;;;;;;;6.43;4.28;;;;;;;27.93;19.66;99950.13;5072555;28;20328;-60
2023/06/15 09:28:27;;;;;;;6.65;4.05;;;;;;;28.08;19.27;99953.25;5072196;28;20057;-60
2023/06/15 09:30:57;;;;;;;7.13;4.15;;;;;;;28.16;18.63;99951.28;5071095;28;20028;-62
2023/06/15 09:33:23;;;;;;;5.57;4.30;;;;;;;28.34;18.43;99944.81;5083531;28;20029;-59
2023/06/15 09:36:00;;;;;;;7.35;4.55;;;;;;;28.54;18.70;99944.44;5076148;28;20111;-56
2023/06/15 09:38:44;;;;;;;4.32;3.65;;;;;;;28.68;18.39;99939.53;5090541;28;20599;-59
2023/06/15 09:41:09;;;;;;;8.30;4.80;;;;;;;28.11;19.85;99937.38;5051933;28;20448;-58
2023/06/15 09:43:38;;;;;;;6.53;3.92;;;;;;;27.96;20.16;99940.56;5051879;28;20036;-56
2023/06/15 09:46:12;;;;;;;12.60;4.45;;;;;;;28.06;19.74;99930.63;5074379;28;20093;-57
2023/06/15 09:48:38;;;;;;;6.82;4.40;;;;;;;28.06;19.39;99932.56;5092336;28;20116;-63
2023/06/15 09:51:04;;;;;;;6.10;4.47;;;;;;;27.97;19.66;99898.19;5079809;28;20154;-60
2023/06/15 09:53:30;;;;;;;6.88;4.32;;;;;;;28.02;19.79;99912.94;5071946;28;20115;-58
2023/06/15 09:55:58;;;;;;;10.18;4.70;;;;;;;28.29;19.76;99930.94;5072885;28;20103;-63
2023/06/15 09:58:24;;;;;;;8.25;5.38;;;;;;;28.46;19.03;99931.91;5074193;28;20037;-61
2023/06/15 10:00:51;;;;;;;7.18;4.43;;;;;;;28.50;18.28;99918.47;5078379;28;20036;-59
2023/06/15 10:03:22;;;;;;;6.60;4.53;;;;;;;28.50;18.77;99922.09;5074325;28;20025;-63
2023/06/15 10:05:52;;;;;;;5.80;4.05;;;;;;;28.35;18.80;99918.97;5071444;28;20367;-58
2023/06/15 10:08:20;;;;;;;12.10;6.28;;;;;;;28.17;18.83;99926.25;5071514;28;20468;-58
2023/06/15 10:10:46;;;;;;;8.10;4.88;;;;;;;28.10;19.25;99935.69;5073435;28;20028;-55
2023/06/15 10:13:22;;;;;;;6.05;4.50;;;;;;;27.90;19.16;99917.59;5092032;28;20035;-63
2023/06/15 10:15:52;;;;;;;6.30;4.82;;;;;;;27.81;19.25;99917.09;5076744;28;20024;-61
2023/06/15 10:18:22;;;;;;;10.95;5.20;;;;;;;27.83;19.56;99917.69;5074292;28;20056;-61
2023/06/15 10:20:57;;;;;;;5.10;4.60;;;;;;;27.83;19.08;99905.84;5078349;28;20036;-58
2023/06/15 10:23:27;;;;;;;5.75;4.38;;;;;;;27.84;19.30;99913.88;5055439;28;20025;-61
2023/06/15 10:25:58;;;;;;;8.13;5.10;;;;;;;27.72;19.17;99860.75;5069795;28;20036;-61
2023/06/15 10:28:25;;;;;;;7.97;4.80;;;;;;;27.93;19.15;99917.94;5081724;28;20173;-60
2023/06/15 10:31:02;;;;;;;6.05;4.43;;;;;;;27.89;19.52;99913.16;5079161;28;20047;-57
2023/06/15 10:33:44;;;;;;;4.70;4.30;;;;;;;27.78;20.08;99903.81;5075251;28;20029;-58
2023/06/15 10:36:19;;;;;;;7.57;5.00;;;;;;;27.61;19.72;99900.88;5074516;28;20085;-61
2023/06/15 10:39:03;;;;;;;5.68;5.07;;;;;;;27.85;19.60;99903.69;5074332;28;20109;-57
2023/06/15 10:41:29;;;;;;;5.30;4.57;;;;;;;27.70;20.29;99873.88;5075182;28;20032;-58
2023/06/15 10:44:02;;;;;;;7.10;4.38;;;;;;;27.88;19.84;99898.56;5075208;28;20458;-59
2023/06/15 10:46:28;;;;;;;8.13;4.40;;;;;;;27.91;20.00;99892.59;5074535;28;20053;-61
2023/06/15 10:48:54;;;;;;;6.68;4.63;;;;;;;28.02;19.23;99887.34;5074688;28;20052;-53
2023/06/15 10:51:25;;;;;;;6.35;4.70;;;;;;;27.91;18.87;99898.09;5075068;28;20028;-61
2023/06/15 10:53:50;;;;;;;4.90;4.35;;;;;;;27.85;19.42;99882.53;5075014;28;20047;-58
2023/06/15 10:56:23;;;;;;;8.20;4.30;;;;;;;27.92;19.54;99882.44;5057033;28;20068;-58
2023/06/15 10:58:58;;;;;;;5.65;4.68;;;;;;;28.03;19.89;99884.34;5074036;28;20118;-60
2023/06/15 11:01:25;;;;;;;7.93;4.95;;;;;;;27.89;19.54;99855.41;5074234;28;20118;-56
2023/06/15 11:03:54;;;;;;;7.97;5.05;;;;;;;28.03;19.38;99873.34;5074766;28;20032;-57
2023/06/15 11:06:41;;;;;;;7.78;5.35;;;;;;;28.07;20.50;99881.97;5074225;28;20123;-61
2023/06/15 11:09:12;;;;;;;7.78;4.32;;;;;;;28.13;18.96;99877.41;5073769;28;20101;-60
2023/06/15 11:11:42;;;;;;;5.38;4.43;;;;;;;28.06;18.89;99883.03;5074125;28;20025;-61
2023/06/15 11:14:19;;;;;;;6.70;4.43;;;;;;;27.98;19.21;99897.16;5074031;28;20024;-55
2023/06/15 11:16:46;;;;;;;4.88;4.43;;;;;;;27.77;19.12;99875.47;5073284;28;20032;-59
2023/06/15 11:19:11;;;;;;;5.75;4.40;;;;;;;27.89;19.61;99867.22;5074260;28;20052;-59
2023/06/15 11:21:41;;;;;;;7.22;4.70;;;;;;;27.78;19.66;99879.06;5074581;28;20044;-61
2023/06/15 11:24:13;;;;;;;9.50;4.38;;;;;;;27.78;19.66;99870.81;5073447;28;20028;-58
2023/06/15 11:26:43;;;;;;;10.20;4.63;;;;;;;27.80;19.84;99852.16;5084285;28;20453;-56